createdAt,value
2018-06-18T00:00:07.587Z,94304.31
2018-06-18T00:02:36.243Z,94296.36
2018-06-18T00:05:04.874Z,94300.90
2018-06-18T00:07:33.483Z,94302.21
2018-06-18T00:10:02.129Z,94298.20
2018-06-18T00:12:30.757Z,94292.13
2018-06-18T00:14:59.386Z,94296.14
2018-06-18T00:17:28.026Z,94299.02
2018-06-18T00:19:56.690Z,94294.64
2018-06-18T00:22:25.302Z,94282.38
2018-06-18T00:24:53.950Z,94288.53
2018-06-18T00:27:22.593Z,94286.52
2018-06-18T00:29:51.205Z,94291.13
2018-06-18T00:32:19.837Z,94291.38
2018-06-18T00:34:48.500Z,94302.16
2018-06-18T00:37:17.276Z,94294.00
2018-06-18T00:39:46.036Z,94294.38
2018-06-18T00:42:14.680Z,94285.27
2018-06-18T00:44:43.405Z,94290.02
2018-06-18T00:47:12.011Z,94294.41
2018-06-18T00:49:40.666Z,94289.12
2018-06-18T00:52:09.346Z,94290.22
2018-06-18T00:54:37.966Z,94288.09
2018-06-18T00:57:06.575Z,94286.75
2018-06-18T00:59:35.218Z,94290.45
2018-06-18T01:02:03.936Z,94287.45
2018-06-18T01:04:32.590Z,94290.60
2018-06-18T01:07:01.277Z,94284.37
2018-06-18T01:09:29.974Z,94284.59
2018-06-18T01:11:58.586Z,94289.86
2018-06-18T01:14:27.240Z,94295.56
2018-06-18T01:16:55.890Z,94295.27
2018-06-18T01:19:24.913Z,94292.15
2018-06-18T01:21:53.590Z,94291.48
2018-06-18T01:24:29.555Z,94293.84
2018-06-18T01:26:58.130Z,94294.63
2018-06-18T01:29:26.890Z,94300.50
2018-06-18T01:31:55.490Z,94296.88
2018-06-18T01:34:26.462Z,94298.70
2018-06-18T01:36:55.546Z,94295.27
2018-06-18T01:39:24.751Z,94294.33
2018-06-18T01:41:54.007Z,94296.95
2018-06-18T01:44:22.657Z,94301.19
2018-06-18T01:46:51.246Z,94303.88
2018-06-18T01:49:19.985Z,94303.66
2018-06-18T01:51:48.655Z,94311.30
2018-06-18T01:54:17.332Z,94315.67
2018-06-18T01:56:46.031Z,94323.81
2018-06-18T01:59:14.686Z,94323.54
2018-06-18T02:01:43.278Z,94321.92
2018-06-18T02:04:11.976Z,94327.58
2018-06-18T02:06:40.568Z,94330.80
2018-06-18T02:09:11.391Z,94336.56
2018-06-18T02:11:40.119Z,94339.81
2018-06-18T02:14:09.417Z,94338.06
2018-06-18T02:16:38.090Z,94338.29
2018-06-18T02:19:06.996Z,94340.99
2018-06-18T02:21:35.644Z,94340.61
2018-06-18T02:24:04.334Z,94350.00
2018-06-18T02:26:33.069Z,94347.06
2018-06-18T02:29:07.513Z,94349.16
2018-06-18T02:31:41.258Z,94348.37
2018-06-18T02:34:14.904Z,94351.02
2018-06-18T02:36:48.644Z,94343.23
2018-06-18T02:39:17.349Z,94348.29
2018-06-18T02:41:46.401Z,94354.23
2018-06-18T02:44:15.735Z,94357.48
2018-06-18T02:46:44.418Z,94355.30
2018-06-18T02:49:13.094Z,94360.55
2018-06-18T02:51:41.722Z,94361.94
2018-06-18T02:54:10.666Z,94358.44
2018-06-18T02:56:49.498Z,94366.11
2018-06-18T02:59:18.263Z,94364.31
2018-06-18T03:01:46.862Z,94367.55
2018-06-18T03:04:15.523Z,94369.88
2018-06-18T03:06:44.241Z,94366.85
2018-06-18T03:09:13.269Z,94371.45
2018-06-18T03:11:41.996Z,94378.68
2018-06-18T03:14:10.926Z,94380.77
2018-06-18T03:16:39.668Z,94377.21
2018-06-18T03:19:13.535Z,94377.78
2018-06-18T03:21:47.326Z,94377.13
2018-06-18T03:24:21.083Z,94375.25
2018-06-18T03:26:54.931Z,94374.94
2018-06-18T03:29:25.886Z,94381.23
2018-06-18T03:31:56.278Z,94389.67
2018-06-18T03:34:24.893Z,94393.60
2018-06-18T03:36:54.027Z,94399.14
2018-06-18T03:39:22.727Z,94391.14
2018-06-18T03:41:52.281Z,94392.27
2018-06-18T03:44:25.698Z,94395.46
2018-06-18T03:46:54.769Z,94396.14
2018-06-18T03:49:23.394Z,94398.19
2018-06-18T03:51:52.020Z,94393.63
2018-06-18T03:54:20.626Z,94403.41
2018-06-18T03:56:49.285Z,94401.16
2018-06-18T03:59:17.988Z,94402.66
2018-06-18T04:02:11.193Z,94406.98
2018-06-18T04:04:51.198Z,94407.72
2018-06-18T04:07:26.127Z,94409.91
2018-06-18T04:10:00.442Z,94411.22
2018-06-18T04:12:29.115Z,94408.35
2018-06-18T04:14:58.012Z,94413.45
2018-06-18T04:17:26.657Z,94408.81
2018-06-18T04:19:55.273Z,94408.38
2018-06-18T04:22:23.963Z,94412.28
2018-06-18T04:24:52.591Z,94411.08
2018-06-18T04:27:21.250Z,94413.05
2018-06-18T04:29:49.914Z,94414.14
2018-06-18T04:32:18.609Z,94406.76
2018-06-18T04:34:51.117Z,94410.67
2018-06-18T04:37:19.783Z,94414.06
2018-06-18T04:39:48.433Z,94414.36
2018-06-18T04:42:22.074Z,94422.13
2018-06-18T04:44:55.967Z,94426.52
2018-06-18T04:47:29.845Z,94425.53
2018-06-18T04:50:03.787Z,94423.47
2018-06-18T04:52:32.750Z,94418.37
2018-06-18T04:55:01.389Z,94424.05
2018-06-18T04:57:30.070Z,94418.00
2018-06-18T05:00:05.994Z,94426.03
2018-06-18T05:02:34.675Z,94427.23
2018-06-18T05:05:03.298Z,94424.79
2018-06-18T05:07:31.984Z,94432.45
2018-06-18T05:10:10.710Z,94432.30
2018-06-18T05:12:39.314Z,94427.86
2018-06-18T05:15:08.031Z,94434.12
2018-06-18T05:17:36.930Z,94430.03
2018-06-18T05:20:05.650Z,94434.41
2018-06-18T05:22:34.302Z,94431.94
2018-06-18T05:25:02.916Z,94433.77
2018-06-18T05:27:33.523Z,94432.25
2018-06-18T05:30:08.386Z,94427.69
2018-06-18T05:32:37.014Z,94428.78
2018-06-18T05:35:06.648Z,94425.80
2018-06-18T05:37:43.919Z,94420.96
2018-06-18T05:40:12.518Z,94430.89
2018-06-18T05:42:41.129Z,94422.35
2018-06-18T05:45:09.825Z,94424.88
2018-06-18T05:47:38.639Z,94424.39
2018-06-18T05:50:07.360Z,94427.38
2018-06-18T05:52:35.978Z,94426.20
2018-06-18T05:55:04.666Z,94434.09
2018-06-18T05:57:34.012Z,94426.43
2018-06-18T06:00:04.446Z,94422.45
2018-06-18T06:02:33.088Z,94420.17
2018-06-18T06:05:01.807Z,94422.72
2018-06-18T06:07:30.461Z,94421.94
2018-06-18T06:09:59.124Z,94431.39
2018-06-18T06:12:27.837Z,94433.45
2018-06-18T06:14:56.522Z,94423.66
2018-06-18T06:17:25.168Z,94416.85
2018-06-18T06:19:53.846Z,94422.55
2018-06-18T06:22:22.558Z,94415.11
2018-06-18T06:24:51.198Z,94418.16
2018-06-18T06:27:19.844Z,94417.19
2018-06-18T06:29:48.643Z,94416.28
2018-06-18T06:32:17.310Z,94427.39
2018-06-18T06:34:49.226Z,94430.61
2018-06-18T06:37:17.888Z,94431.08
2018-06-18T06:39:46.606Z,94425.91
2018-06-18T06:42:21.511Z,94427.91
2018-06-18T06:44:51.829Z,94423.38
2018-06-18T06:47:20.459Z,94420.87
2018-06-18T06:49:49.379Z,94421.47
2018-06-18T06:52:18.112Z,94420.14
2018-06-18T06:54:46.798Z,94421.51
2018-06-18T06:57:15.587Z,94419.22
2018-06-18T06:59:44.254Z,94412.37
2018-06-18T07:02:12.898Z,94412.42
2018-06-18T07:04:41.603Z,94406.94
2018-06-18T07:07:10.296Z,94409.07
2018-06-18T07:09:38.964Z,94406.28
2018-06-18T07:12:07.725Z,94414.61
2018-06-18T07:14:36.338Z,94404.46
2018-06-18T07:17:04.981Z,94413.61
2018-06-18T07:19:33.617Z,94408.13
2018-06-18T07:22:02.278Z,94407.06
2018-06-18T07:24:31.006Z,94417.89
2018-06-18T07:26:59.626Z,94409.77
2018-06-18T07:29:28.358Z,94409.64
2018-06-18T07:31:57.671Z,94414.95
2018-06-18T07:34:26.351Z,94416.13
2018-06-18T07:36:55.000Z,94416.55
2018-06-18T07:39:23.657Z,94409.14
2018-06-18T07:41:52.333Z,94407.42
2018-06-18T07:44:20.983Z,94401.86
2018-06-18T07:46:49.687Z,94405.80
2018-06-18T07:49:18.392Z,94402.83
2018-06-18T07:51:47.078Z,94409.90
2018-06-18T07:54:15.740Z,94405.90
2018-06-18T07:56:44.386Z,94412.97
2018-06-18T07:59:13.030Z,94409.02
2018-06-18T08:01:41.736Z,94411.66
2018-06-18T08:04:10.498Z,94409.61
2018-06-18T08:06:39.138Z,94406.94
2018-06-18T08:09:11.571Z,94408.46
2018-06-18T08:11:40.499Z,94410.06
2018-06-18T08:14:09.315Z,94408.53
2018-06-18T08:16:38.148Z,94404.15
2018-06-18T08:19:06.820Z,94400.97
2018-06-18T08:21:35.862Z,94400.41
2018-06-18T08:24:04.623Z,94405.19
2018-06-18T08:26:33.368Z,94401.23
2018-06-18T08:29:02.187Z,94402.73
2018-06-18T08:31:31.874Z,94397.16
2018-06-18T08:34:00.619Z,94396.30
2018-06-18T08:36:29.329Z,94405.51
2018-06-18T08:38:57.999Z,94402.18
2018-06-18T08:41:26.642Z,94397.42
2018-06-18T08:43:55.295Z,94402.12
2018-06-18T08:46:23.971Z,94394.33
2018-06-18T08:48:57.862Z,94395.72
2018-06-18T08:52:33.505Z,94398.09
2018-06-18T08:55:07.295Z,94397.45
2018-06-18T08:57:41.121Z,94393.39
2018-06-18T09:00:14.989Z,94395.91
2018-06-18T09:02:48.544Z,94394.75
2018-06-18T09:05:21.376Z,94395.98
2018-06-18T09:07:54.061Z,94396.79
2018-06-18T09:10:22.887Z,94407.31
2018-06-18T09:12:51.706Z,94403.52
2018-06-18T09:15:20.437Z,94398.87
2018-06-18T09:17:49.114Z,94395.52
2018-06-18T09:20:17.775Z,94397.63
2018-06-18T09:22:46.445Z,94393.10
2018-06-18T09:25:15.107Z,94391.50
2018-06-18T09:27:43.758Z,94392.57
2018-06-18T09:30:12.544Z,94401.63
2018-06-18T09:32:41.329Z,94397.45
2018-06-18T09:35:09.957Z,94401.72
2018-06-18T09:37:38.644Z,94403.56
2018-06-18T09:40:07.425Z,94393.22
2018-06-18T09:42:36.111Z,94395.31
2018-06-18T09:45:04.894Z,94397.89
2018-06-18T09:47:33.589Z,94389.33
2018-06-18T09:51:07.297Z,94385.30
2018-06-18T09:53:41.246Z,94382.55
2018-06-18T09:56:15.119Z,94377.55
2018-06-18T09:58:49.027Z,94375.21
2018-06-18T10:01:22.734Z,94373.71
2018-06-18T10:03:51.803Z,94366.16
2018-06-18T10:06:21.812Z,94364.31
2018-06-18T10:08:50.583Z,94364.05
2018-06-18T10:11:19.112Z,94369.91
2018-06-18T10:13:47.797Z,94372.30
2018-06-18T10:16:16.469Z,94373.34
2018-06-18T10:18:45.061Z,94366.67
2018-06-18T10:21:13.796Z,94370.38
2018-06-18T10:23:42.441Z,94373.82
2018-06-18T10:26:11.073Z,94366.89
2018-06-18T10:28:39.694Z,94367.72
2018-06-18T10:31:08.347Z,94367.16
2018-06-18T10:33:42.206Z,94364.78
2018-06-18T10:36:15.975Z,94362.86
2018-06-18T10:38:49.741Z,94355.66
2018-06-18T10:41:23.679Z,94355.95
2018-06-18T10:43:52.375Z,94349.93
2018-06-18T10:46:21.037Z,94357.12
2018-06-18T10:48:49.703Z,94352.86
2018-06-18T10:51:18.405Z,94355.43
2018-06-18T10:53:47.102Z,94357.72
2018-06-18T10:56:15.790Z,94361.92
2018-06-18T10:58:44.577Z,94358.36
2018-06-18T11:01:19.418Z,94354.08
2018-06-18T11:03:48.154Z,94358.63
2018-06-18T11:06:21.997Z,94359.00
2018-06-18T11:08:50.716Z,94361.91
2018-06-18T11:11:19.388Z,94365.67
2018-06-18T11:13:48.038Z,94367.56
2018-06-18T11:16:16.811Z,94361.63
2018-06-18T11:18:50.505Z,94364.39
2018-06-18T11:21:25.571Z,94362.80
2018-06-18T11:23:59.461Z,94360.28
2018-06-18T11:26:33.484Z,94358.22
2018-06-18T11:29:02.207Z,94358.20
2018-06-18T11:31:30.858Z,94363.94
2018-06-18T11:33:59.543Z,94360.24
2018-06-18T11:36:28.282Z,94360.67
2018-06-18T11:38:56.965Z,94360.34
2018-06-18T11:41:25.638Z,94356.30
2018-06-18T11:43:54.374Z,94358.22
2018-06-18T11:46:23.211Z,94354.06
2018-06-18T11:48:51.898Z,94353.59
2018-06-18T11:51:20.596Z,94349.09
2018-06-18T11:53:49.316Z,94348.48
2018-06-18T11:56:18.010Z,94342.09
2018-06-18T11:58:52.034Z,94343.97
2018-06-18T12:01:26.062Z,94342.99
2018-06-18T12:03:59.918Z,94342.20
2018-06-18T12:06:33.837Z,94339.27
2018-06-18T12:09:07.686Z,94332.29
2018-06-18T12:11:36.497Z,94324.49
2018-06-18T12:14:05.223Z,94326.89
2018-06-18T12:16:35.548Z,94322.88
2018-06-18T12:19:04.909Z,94322.27
2018-06-18T12:21:33.854Z,94321.02
2018-06-18T12:24:02.520Z,94318.66
2018-06-18T12:26:32.858Z,94316.55
2018-06-18T12:29:02.759Z,94310.12
2018-06-18T12:31:31.450Z,94317.05
2018-06-18T12:34:00.539Z,94310.86
2018-06-18T12:36:29.224Z,94298.94
2018-06-18T12:38:57.971Z,94302.52
2018-06-18T12:41:26.672Z,94298.05
2018-06-18T12:43:57.190Z,94304.48
2018-06-18T12:46:31.211Z,94302.77
2018-06-18T12:49:05.121Z,94296.03
2018-06-18T12:51:38.906Z,94290.89
2018-06-18T12:54:12.760Z,94295.34
2018-06-18T12:56:46.737Z,94292.61
2018-06-18T12:59:15.418Z,94289.72
2018-06-18T13:01:50.065Z,94291.39
2018-06-18T13:04:18.719Z,94297.59
2018-06-18T13:06:47.413Z,94297.46
2018-06-18T13:09:16.055Z,94291.70
2018-06-18T13:11:44.669Z,94291.91
2018-06-18T13:14:13.290Z,94293.23
2018-06-18T13:16:41.974Z,94287.20
2018-06-18T13:19:10.674Z,94293.70
2018-06-18T13:21:39.405Z,94282.58
2018-06-18T13:24:08.119Z,94293.97
2018-06-18T13:26:36.752Z,94292.92
2018-06-18T13:29:05.496Z,94296.06
2018-06-18T13:31:34.354Z,94289.39
2018-06-18T13:34:03.162Z,94291.58
2018-06-18T13:36:31.788Z,94298.18
2018-06-18T13:39:05.616Z,94299.36
2018-06-18T13:41:39.550Z,94304.14
2018-06-18T13:44:13.400Z,94287.23
2018-06-18T13:46:47.061Z,94280.58
2018-06-18T13:49:15.748Z,94282.14
2018-06-18T13:51:44.706Z,94284.55
2018-06-18T13:54:14.252Z,94282.34
2018-06-18T13:56:42.859Z,94284.02
2018-06-18T13:59:11.508Z,94286.86
2018-06-18T14:01:40.200Z,94284.94
2018-06-18T14:04:08.873Z,94290.68
2018-06-18T14:06:37.530Z,94292.50
2018-06-18T14:09:07.664Z,94293.91
2018-06-18T14:11:36.452Z,94293.02
2018-06-18T14:14:05.209Z,94287.79
2018-06-18T14:16:33.852Z,94285.52
2018-06-18T14:19:06.596Z,94291.50
2018-06-18T14:21:35.287Z,94302.84
2018-06-18T14:24:04.080Z,94304.42
2018-06-18T14:26:32.807Z,94311.95
2018-06-18T14:29:01.535Z,94312.79
2018-06-18T14:31:35.399Z,94307.25
2018-06-18T14:34:09.639Z,94309.38
2018-06-18T14:36:43.659Z,94304.78
2018-06-18T14:39:17.583Z,94312.97
2018-06-18T14:41:46.289Z,94317.72
2018-06-18T14:44:14.994Z,94315.69
2018-06-18T14:46:43.675Z,94309.08
2018-06-18T14:49:12.347Z,94307.48
2018-06-18T14:51:41.057Z,94307.89
2018-06-18T14:54:09.951Z,94310.22
2018-06-18T14:56:38.755Z,94307.22
2018-06-18T14:59:15.289Z,94314.93
2018-06-18T15:01:44.010Z,94333.41
2018-06-18T15:04:12.664Z,94361.02
2018-06-18T15:06:41.342Z,94369.55
2018-06-18T15:09:14.239Z,94353.54
2018-06-18T15:11:43.617Z,94347.27
2018-06-18T15:14:12.427Z,94353.24
2018-06-18T15:16:41.140Z,94363.97
2018-06-18T15:19:09.850Z,94385.33
2018-06-18T15:21:41.567Z,94399.86
2018-06-18T15:24:13.118Z,94421.23
2018-06-18T15:26:41.741Z,94448.86
2018-06-18T15:29:10.520Z,94457.91
2018-06-18T15:31:39.212Z,94463.27
2018-06-18T15:34:07.833Z,94497.20
2018-06-18T15:36:36.529Z,94525.52
2018-06-18T15:39:08.279Z,94577.16
2018-06-18T15:41:36.945Z,94603.59
2018-06-18T15:44:05.672Z,94541.14
2018-06-18T15:46:34.282Z,94523.98
2018-06-18T15:49:02.911Z,94526.94
2018-06-18T15:51:31.550Z,94526.95
2018-06-18T15:54:00.218Z,94535.59
2018-06-18T15:56:28.967Z,94532.42
2018-06-18T15:58:57.602Z,94526.84
2018-06-18T16:01:26.246Z,94529.22
2018-06-18T16:03:54.910Z,94521.36
2018-06-18T16:06:23.607Z,94521.45
2018-06-18T16:08:52.269Z,94530.08
2018-06-18T16:11:20.978Z,94533.48
2018-06-18T16:13:49.626Z,94549.86
2018-06-18T16:16:18.355Z,94555.96
2018-06-18T16:18:47.030Z,94559.72
2018-06-18T16:21:15.662Z,94554.09
2018-06-18T16:23:44.443Z,94545.56
2018-06-18T16:26:13.082Z,94551.13
2018-06-18T16:28:41.769Z,94542.86
2018-06-18T16:31:10.446Z,94542.03
2018-06-18T16:33:39.285Z,94535.56
2018-06-18T16:36:07.969Z,94529.56
2018-06-18T16:38:36.703Z,94526.50
2018-06-18T16:41:05.357Z,94532.27
2018-06-18T16:43:34.089Z,94538.95
2018-06-18T16:46:02.776Z,94534.03
2018-06-18T16:48:31.528Z,94530.48
2018-06-18T16:51:00.181Z,94530.55
2018-06-18T16:53:28.861Z,94527.30
2018-06-18T16:55:57.500Z,94521.06
2018-06-18T16:58:26.151Z,94521.34
2018-06-18T17:00:54.757Z,94516.17
2018-06-18T17:03:23.375Z,94506.47
2018-06-18T17:05:52.401Z,94501.64
2018-06-18T17:08:21.021Z,94504.27
2018-06-18T17:10:49.792Z,94498.52
2018-06-18T17:13:18.480Z,94499.61
2018-06-18T17:15:47.230Z,94494.42
2018-06-18T17:18:15.900Z,94491.72
2018-06-18T17:20:44.630Z,94494.23
2018-06-18T17:23:13.338Z,94495.16
2018-06-18T17:25:41.994Z,94493.48
2018-06-18T17:28:10.904Z,94502.33
2018-06-18T17:30:40.404Z,94497.70
2018-06-18T17:33:09.092Z,94502.77
2018-06-18T17:35:37.845Z,94507.94
2018-06-18T17:38:07.004Z,94507.42
2018-06-18T17:40:35.772Z,94508.48
2018-06-18T17:43:04.980Z,94513.87
2018-06-18T17:45:33.585Z,94515.19
2018-06-18T17:48:02.246Z,94521.77
2018-06-18T17:50:31.522Z,94522.06
2018-06-18T17:53:00.298Z,94526.08
2018-06-18T17:55:29.065Z,94524.75
2018-06-18T17:57:57.755Z,94525.20
2018-06-18T18:00:26.568Z,94531.70
2018-06-18T18:02:56.701Z,94532.15
2018-06-18T18:05:25.397Z,94524.62
2018-06-18T18:07:54.470Z,94529.95
2018-06-18T18:10:24.288Z,94531.20
2018-06-18T18:12:53.006Z,94532.85
2018-06-18T18:15:21.737Z,94533.45
2018-06-18T18:17:50.457Z,94532.85
2018-06-18T18:20:19.726Z,94524.53
2018-06-18T18:22:49.571Z,94525.94
2018-06-18T18:25:18.505Z,94523.80
2018-06-18T18:27:47.167Z,94531.89
2018-06-18T18:30:15.868Z,94535.19
2018-06-18T18:32:44.561Z,94540.12
2018-06-18T18:35:13.449Z,94542.22
2018-06-18T18:37:42.125Z,94537.97
2018-06-18T18:40:10.821Z,94545.86
2018-06-18T18:42:40.063Z,94547.13
2018-06-18T18:45:08.775Z,94547.06
2018-06-18T18:47:37.568Z,94555.89
2018-06-18T18:50:06.686Z,94555.97
2018-06-18T18:52:35.360Z,94563.73
2018-06-18T18:55:44.821Z,94567.00
2018-06-18T18:58:24.667Z,94574.97
2018-06-18T19:00:53.759Z,94583.16
2018-06-18T19:03:24.159Z,94590.02
2018-06-18T19:05:53.477Z,94597.09
2018-06-18T19:08:25.897Z,94596.82
2018-06-18T19:10:54.761Z,94599.48
2018-06-18T19:13:26.401Z,94597.83
2018-06-18T19:15:55.791Z,94601.17
2018-06-18T19:18:24.649Z,94602.03
2018-06-18T19:20:59.729Z,94602.33
2018-06-18T19:23:28.585Z,94594.67
2018-06-18T19:25:57.328Z,94605.67
2018-06-18T19:28:26.984Z,94602.70
2018-06-18T19:31:02.540Z,94607.97
2018-06-18T19:33:38.393Z,94610.81
2018-06-18T19:36:08.092Z,94607.72
2018-06-18T19:38:36.867Z,94607.39
2018-06-18T19:41:05.536Z,94608.19
2018-06-18T19:43:34.296Z,94608.05
2018-06-18T19:46:04.089Z,94616.39
2018-06-18T19:48:36.562Z,94610.29
2018-06-18T19:51:05.261Z,94622.50
2018-06-18T19:53:34.005Z,94626.58
2018-06-18T19:56:02.756Z,94628.91
2018-06-18T19:58:31.415Z,94635.03
2018-06-18T20:01:03.051Z,94633.63
2018-06-18T20:03:31.724Z,94635.69
2018-06-18T20:06:01.661Z,94639.71
2018-06-18T20:08:32.235Z,94642.69
2018-06-18T20:11:01.120Z,94644.53
2018-06-18T20:13:29.805Z,94644.83
2018-06-18T20:15:58.503Z,94639.80
2018-06-18T20:18:27.117Z,94644.39
2018-06-18T20:20:55.814Z,94646.00
2018-06-18T20:23:26.055Z,94649.53
2018-06-18T20:26:06.483Z,94646.91
2018-06-18T20:28:35.125Z,94650.47
2018-06-18T20:31:03.794Z,94656.21
2018-06-18T20:33:34.529Z,94660.48
2018-06-18T20:36:06.709Z,94658.83
2018-06-18T20:38:36.129Z,94655.88
2018-06-18T20:41:04.786Z,94655.91
2018-06-18T20:43:45.985Z,94653.98
2018-06-18T20:46:14.915Z,94655.42
2018-06-18T20:48:44.116Z,94644.52
2018-06-18T20:51:13.159Z,94644.66
2018-06-18T20:53:42.214Z,94645.16
2018-06-18T20:56:11.964Z,94650.81
2018-06-18T20:58:40.619Z,94657.11
2018-06-18T21:01:09.430Z,94649.86
2018-06-18T21:03:38.081Z,94647.20
2018-06-18T21:06:06.720Z,94641.19
2018-06-18T21:08:35.520Z,94642.58
2018-06-18T21:11:04.274Z,94644.47
2018-06-18T21:13:33.011Z,94640.03
2018-06-18T21:16:02.520Z,94639.22
2018-06-18T21:18:31.230Z,94637.73
2018-06-18T21:20:59.909Z,94637.00
2018-06-18T21:23:28.522Z,94631.39
2018-06-18T21:25:57.211Z,94623.38
2018-06-18T21:28:25.845Z,94622.64
2018-06-18T21:30:54.643Z,94622.30
2018-06-18T21:33:24.343Z,94620.98
2018-06-18T21:35:53.006Z,94621.41
2018-06-18T21:38:21.642Z,94626.11
2018-06-18T21:40:50.322Z,94634.64
2018-06-18T21:43:19.426Z,94638.09
2018-06-18T21:45:48.196Z,94645.67
2018-06-18T21:48:16.905Z,94647.84
2018-06-18T21:50:45.670Z,94648.46
2018-06-18T21:53:14.324Z,94654.99
2018-06-18T21:55:43.014Z,94655.30
2018-06-18T21:58:11.743Z,94662.88
2018-06-18T22:00:44.836Z,94657.92
2018-06-18T22:03:13.561Z,94660.25
2018-06-18T22:05:42.291Z,94664.92
2018-06-18T22:08:13.259Z,94664.80
2018-06-18T22:10:41.916Z,94670.53
2018-06-18T22:13:10.622Z,94676.00
2018-06-18T22:15:39.382Z,94673.20
2018-06-18T22:18:08.071Z,94667.95
2018-06-18T22:20:36.821Z,94668.39
2018-06-18T22:23:05.572Z,94664.48
2018-06-18T22:25:34.363Z,94671.22
2018-06-18T22:28:04.225Z,94669.55
2018-06-18T22:30:33.004Z,94663.07
2018-06-18T22:33:01.660Z,94664.08
2018-06-18T22:35:30.391Z,94667.84
2018-06-18T22:37:59.040Z,94668.23
2018-06-18T22:40:27.710Z,94669.68
2018-06-18T22:42:56.350Z,94669.16
2018-06-18T22:45:25.003Z,94673.45
2018-06-18T22:47:53.762Z,94673.36
2018-06-18T22:50:22.486Z,94670.16
2018-06-18T22:52:51.136Z,94671.17
2018-06-18T22:55:19.873Z,94670.16
2018-06-18T22:57:48.499Z,94670.95
2018-06-18T23:00:17.241Z,94669.02
2018-06-18T23:02:45.918Z,94669.23
2018-06-18T23:05:14.617Z,94671.64
2018-06-18T23:07:43.294Z,94667.39
2018-06-18T23:10:11.951Z,94669.40
2018-06-18T23:12:42.818Z,94671.12
2018-06-18T23:15:12.643Z,94676.45
2018-06-18T23:17:41.478Z,94671.85
2018-06-18T23:20:10.840Z,94672.14
2018-06-18T23:22:40.197Z,94672.14
2018-06-18T23:25:09.253Z,94672.56
2018-06-18T23:27:37.948Z,94665.99
2018-06-18T23:30:07.035Z,94659.45
2018-06-18T23:32:35.675Z,94663.51
2018-06-18T23:35:04.376Z,94670.12
2018-06-18T23:37:33.088Z,94670.39
2018-06-18T23:40:01.750Z,94667.28
2018-06-18T23:42:30.489Z,94667.06
2018-06-18T23:44:59.299Z,94664.74
2018-06-18T23:47:27.972Z,94662.38
2018-06-18T23:49:56.650Z,94662.38
2018-06-18T23:52:25.314Z,94660.45
2018-06-18T23:54:53.962Z,94664.17
2018-06-18T23:57:22.667Z,94659.92
2018-06-18T23:59:51.334Z,94661.11
